Weather observations for the past three days for
Mc Gregor - Isedor Iverson Airport
Metric (Imperial)
Date Time (cdt) Wind (kph) Vis. (km) Weather Sky Cond. Temperature (ºC) Relative Humidity Wind Chill (°C) Heat Index (°C) Pressure Precipitation (cm)
Air Dwpt 6 hour altimeter (cm) sea level (mb) 1 hr 3 hr 6 hr
Max. Min.
10 11:15 N 20 G 28 16.09 Partly Cloudy SCT045 7 -4 46% 4 76.58 0.0
10 10:55 W 15 16.09 Mostly Cloudy BKN043 6 -4 49% 3 76.58 0.0
10 10:35 NW 17 G 28 16.09 Overcast OVC039 6 -3 53% 3 76.58 0.0
10 10:15 NW 19 G 30 16.09 Overcast OVC039 5 -3 57% 2 76.56 0.0
10 09:55 NW 19 16.09 Overcast OVC037 5 -3 57% 2 76.56 0.0
10 09:35 NW 20 G 31 16.09 Mostly Cloudy BKN034 BKN043 6 -3 53% 3 76.56 0.0
10 09:15 N 17 G 33 16.09 Partly Cloudy SCT030 5 -2 61% 2 76.56 0.0
10 08:55 NW 19 G 28 16.09 Partly Cloudy SCT030 4 -2 65% 0 76.53 0.0
10 08:35 N 24 G 31 16.09 Fair CLR 4 -2 65% -0 76.53 0.0
10 08:15 NW 22 16.09 Fair CLR 3 -2 70% -1 76.5 0.0
10 07:55 NW 20 G 31 16.09 Fair CLR 3 -2 70% -1 76.48 0.0
10 07:35 NW 20 16.09 Fair CLR 3 -2 70% -1 76.45 0.0
10 07:15 NW 17 16.09 Fair CLR 3 -2 70% -1 76.43 0.0
10 06:55 NW 17 16.09 Fair CLR 3 -2 70% -1 76.43 0.0
10 06:35 NW 17 G 26 16.09 Fair CLR 3 -2 70% -1 76.4 0.0
10 06:15 NW 13 16.09 Fair CLR 3 -1 75% 0 76.38 0.0
10 05:55 NW 9 16.09 Fair CLR 2 -1 81% -0 76.35 0.0
10 05:35 NW 9 16.09 Fair CLR 3 0 81% 1 76.33 0.0
10 05:15 NW 11 16.09 Fair CLR 3 0 81% 0 76.3 0.0
10 04:55 NW 15 16.09 Fair CLR 3 0 81% -0 76.3 0.0
10 04:35 W 9 16.09 Fair CLR 4 0 75% 2 76.25 0.0
10 04:15 W 9 16.09 Fair CLR 4 0 75% 2 76.25 0.0
10 03:55 W 6 16.09 Partly Cloudy SCT075 4 0 75% 76.23 0.0
10 03:35 W 7 16.09 Partly Cloudy SCT100 5 0 70% 4 76.23 0.0
10 03:15 W 7 16.09 Mostly Cloudy BKN100 5 0 70% 4 76.2 0.0
10 02:55 W 7 16.09 Overcast OVC100 5 0 70% 4 76.17 0.0
10 02:35 W 7 16.09 Overcast OVC100 5 -1 66% 4 76.17 0.0
10 02:15 W 9 16.09 Overcast SCT075 SCT090 OVC110 6 -1 61% 4 76.17 0.0
10 01:55 NW 11 16.09 Overcast BKN070 OVC110 6 -1 61% 4 76.17 0.0
10 01:35 NW 9 16.09 Overcast OVC110 6 -1 61% 4 76.15 0.0
10 01:15 NW 13 16.09 Overcast BKN060 OVC110 6 -1 61% 4 76.17 0.0
10 00:55 NW 11 16.09 Overcast BKN070 OVC110 6 -2 57% 4 76.15 0.0
10 00:35 NW 13 16.09 Overcast OVC110 6 -2 57% 4 76.15 0.0
10 00:15 NW 11 16.09 Mostly Cloudy BKN110 6 -3 53% 4 76.12 0.0
09 23:55 NW 7 16.09 Partly Cloudy SCT110 6 -3 53% 5 76.1 0.0
09 23:35 NW 9 16.09 Mostly Cloudy BKN110 6 -3 53% 4 76.07 0.0
09 23:15 NW 7 16.09 Mostly Cloudy SCT080 BKN110 6 -3 53% 5 76.07 0.0
09 22:55 W 6 16.09 Fair CLR 6 -3 53% 76.07 0.0
09 22:35 W 6 16.09 Fair CLR 6 -4 49% 76.07 0.0
09 22:15 W 6 16.09 Fair CLR 6 -4 49% 76.07 0.0
09 21:55 W 6 16.09 Fair CLR 7 -4 46% 76.05 0.0
09 21:35 NW 7 16.09 Partly Cloudy SCT095 8 -4 43% 7 76.05 0.0
09 21:15 NW 11 16.09 Mostly Cloudy BKN095 8 -5 40% 6 76.02 0.0
09 20:55 NW 11 16.09 Mostly Cloudy BKN085 8 -5 40% 6 76 0.0
09 20:35 NW 17 G 30 16.09 Mostly Cloudy BKN085 9 -5 37% 7 76 0.0
09 20:15 NW 20 G 28 16.09 Mostly Cloudy BKN085 9 -5 37% 6 75.97 0.0
09 19:55 NW 17 16.09 Overcast SCT075 OVC085 10 -4 37% 8 75.95 0.0
09 19:35 NW 19 G 33 16.09 Overcast SCT075 OVC085 10 -4 37% 8 75.92 0.0
09 19:15 NW 26 G 43 16.09 Overcast SCT070 OVC085 10 -5 35% 7 75.9 0.0
09 18:55 N 22 G 31 16.09 Overcast OVC070 11 -3 38% 75.87 0.0
09 18:35 NW 20 G 30 16.09 Mostly Cloudy BKN070 BKN090 11 -4 35% 75.87 0.0
09 18:15 N 19 G 35 16.09 Mostly Cloudy SCT080 BKN090 11 -5 32% 75.84 0.0
09 17:55 NW 28 G 44 16.09 Mostly Cloudy SCT080 BKN090 12 -5 30% 75.82 0.0
09 17:35 N 28 G 37 16.09 Partly Cloudy SCT085 SCT090 11 -5 32% 75.79 0.0
09 17:15 NW 24 G 39 16.09 Mostly Cloudy BKN075 BKN095 11 -5 32% 75.79 0.0
09 16:55 NW 20 16.09 Overcast BKN075 OVC085 12 -5 30% 75.79 0.0
09 16:35 NW 30 G 35 16.09 Mostly Cloudy BKN080 12 -5 30% 75.77 0.0
09 16:15 NW 22 G 35 16.09 Partly Cloudy SCT075 SCT095 12 -5 30% 75.77 0.0
09 15:55 NW 30 16.09 Partly Cloudy SCT075 12 -5 30% 75.74 0.0
09 15:35 NW 31 G 39 16.09 Partly Cloudy SCT075 12 -5 30% 75.74 0.0
09 15:15 NW 28 G 39 16.09 Partly Cloudy SCT075 12 -5 30% 75.72 0.0
09 14:55 NW 33 G 44 16.09 Partly Cloudy and Breezy SCT075 13 -5 28% 75.72 0.0
09 14:35 N 24 G 41 16.09 Partly Cloudy SCT065 12 -5 30% 75.69 0.0
09 14:15 NW 28 G 43 16.09 Partly Cloudy SCT065 12 -4 33% 75.69 0.0
09 13:55 NW 24 G 46 16.09 Partly Cloudy SCT065 11 -5 32% 75.69 0.0
09 13:35 NW 20 G 35 16.09 Partly Cloudy SCT065 12 -4 33% 75.69 0.0
09 13:15 NW 24 G 41 16.09 Partly Cloudy SCT065 11 -5 32% 75.67 0.0
09 12:55 W 26 G 43 16.09 Partly Cloudy SCT065 11 -4 35% 75.67 0.0
09 12:35 N 37 G 46 16.09 Partly Cloudy and Breezy SCT055 11 -3 38% 75.64 0.0
09 12:15 NW 26 G 41 16.09 Partly Cloudy SCT055 10 -4 37% 7 75.64 0.0
09 11:55 N 24 G 41 16.09 Partly Cloudy SCT055 10 -3 40% 7 75.62 0.0
09 11:35 NW 31 G 41 16.09 Partly Cloudy SCT050 10 -4 37% 7 75.62 0.0
09 11:15 NW 24 G 37 16.09 Partly Cloudy SCT050 8 -3 46% 5 75.62 0.0
09 10:55 NW 26 G 37 16.09 Partly Cloudy SCT050 8 -3 46% 5 75.62 0.0
09 10:35 NW 26 G 41 16.09 Partly Cloudy SCT050 9 -3 43% 6 75.57 0.0
09 10:15 NW 31 G 43 16.09 Fair CLR 9 -3 43% 5 75.57 0.0
09 09:55 N 28 G 41 16.09 Fair CLR 8 -4 43% 4 75.54 0.0
09 09:35 N 26 G 37 16.09 Fair CLR 9 -4 40% 6 75.51 0.0
09 09:15 NW 31 16.09 Fair CLR 9 -4 40% 5 75.49 0.0
09 08:55 NW 24 G 37 16.09 Fair CLR 8 -5 40% 5 75.49 0.0
09 08:35 NW 24 G 39 16.09 Fair CLR 8 -5 40% 5 75.46 0.0
09 08:15 N 26 G 43 16.09 Fair CLR 7 -4 46% 3 75.44 0.0
09 07:55 NW 24 G 35 16.09 Fair CLR 7 -3 49% 4 75.41 0.0
09 07:35 NW 17 G 26 16.09 Partly Cloudy SCT090 7 -1 57% 4 75.39 0.0
09 07:15 N 19 G 30 16.09 Overcast OVC090 6 0 66% 3 75.39 0.0
09 06:55 N 20 G 28 16.09 Overcast OVC090 6 1 71% 3 75.36 0.0
09 06:35 NW 15 16.09 Overcast OVC090 6 2 76% 3 75.31 0.0
09 06:15 NW 13 16.09 Overcast OVC090 6 2 76% 4 75.31 0.0
09 05:55 NW 11 16.09 Overcast BKN080 OVC090 6 2 76% 4 75.29 0.0
09 05:35 NW 9 16.09 Overcast SCT060 BKN070 OVC090 6 2 76% 4 75.26 0.0
09 05:15 W 7 16.09 Overcast SCT045 OVC060 6 3 81% 5 75.23 0.0
09 04:55 W 6 16.09 Light Drizzle OVC046 6 3 81% 75.23 0.0
09 04:35 NW 9 16.09 Light Rain OVC043 7 2 71% 5 75.23 0.0
09 04:15 NW 7 16.09 Light Rain OVC041 7 2 71% 6 75.23 0.0
09 03:55 NW 7 16.09 Light Drizzle OVC043 7 2 71% 6 75.21 0.0
09 03:35 N 9 16.09 Light Drizzle OVC045 7 2 71% 5 75.21 0.0
09 03:15 NW 13 16.09 Overcast BKN045 BKN050 OVC070 8 1 62% 6 75.21 0.0
09 02:55 W 7 16.09 Rain SCT043 SCT050 OVC070 8 1 62% 7 75.18 0.0
09 02:35 NW 9 16.09 Light Drizzle SCT050 SCT070 OVC085 8 1 62% 7 75.18 0.0
09 02:15 NW 9 16.09 Light Drizzle SCT033 BKN060 OVC085 8 2 66% 7 75.21 0.0
09 01:55 N 17 G 35 16.09 Light Rain SCT025 BKN047 OVC065 9 1 58% 7 75.23 0.0
09 01:35 NW 20 G 35 16.09 Light Rain SCT048 OVC055 11 0 47% 75.23 0.0
09 01:15 NW 15 16.09 Overcast OVC055 11 0 47% 75.23 0.0
09 00:55 W 13 16.09 Overcast SCT047 OVC055 11 0 47% 75.23 0.0
09 00:35 W 17 G 39 16.09 Overcast SCT044 BKN060 OVC075 11 0 47% 75.23 0.0
09 00:15 NW 7 16.09 Overcast SCT050 SCT070 OVC085 7 0 61% 6 75.21 0.0
08 23:55 Calm 16.09 Mostly Cloudy BKN085 7 -1 57% 75.18 0.0
08 23:35 Calm 16.09 Fair CLR 7 -1 57% 75.16 0.0
08 23:15 Calm 16.09 Fair CLR 7 -2 53% 75.16 0.0
08 22:55 Calm 16.09 Fair CLR 7 -1 57% 75.18 0.0
08 22:35 Calm 16.09 Fair CLR 8 -1 53% 75.18 0.0
08 22:15 Calm 16.09 Fair CLR 9 -3 43% 75.18 0.0
08 21:55 Calm 16.09 Fair CLR 11 -3 38% 75.18 0.0
08 21:35 NW 7 16.09 Fair CLR 11 -3 38% 75.18 0.0
08 21:15 NW 9 16.09 Fair CLR 12 -3 35% 75.18 0.0
08 20:55 NW 15 16.09 Fair CLR 13 -3 33% 75.16 0.0
08 20:35 NW 17 16.09 Fair CLR 13 -3 33% 75.13 0.0
08 20:15 NW 22 G 35 16.09 Fair CLR 14 -3 31% 75.13 0.0
08 19:55 NW 24 G 33 16.09 Fair CLR 15 -3 29% 75.11 0.0
08 19:35 NW 19 G 37 16.09 Fair CLR 16 -3 27% 75.08 0.0
08 19:15 NW 24 G 39 16.09 Partly Cloudy SCT090 17 -2 27% 75.08 0.0
08 18:55 NW 24 G 33 16.09 Mostly Cloudy BKN100 BKN120 17 -1 30% 75.06 0.0
08 18:35 NW 22 G 31 16.09 Overcast OVC110 17 -3 25% 75.06 0.0
08 18:15 W 20 G 31 16.09 Overcast OVC100 17 -4 24% 75.06 0.0
08 17:55 W 15 16.09 Overcast OVC110 17 -4 24% 75.06 0.0
08 17:35 W 13 16.09 Mostly Cloudy BKN110 17 -4 24% 75.06 0.0
08 17:15 W 15 G 35 16.09 Overcast OVC110 17 -4 24% 75.08 0.0
08 16:55 W 20 G 28 16.09 Mostly Cloudy SCT095 BKN120 18 -4 22% 75.08 0.0
08 16:35 W 19 G 30 16.09 Mostly Cloudy BKN100 18 -4 22% 75.11 0.0
08 16:15 W 19 G 30 16.09 Mostly Cloudy BKN100 17 -4 24% 75.11 0.0
08 15:55 SW 17 G 33 16.09 Overcast OVC100 17 -4 24% 75.13 0.0
08 15:35 W 22 G 33 16.09 Mostly Cloudy BKN100 18 -5 21% 75.16 0.0
08 15:15 W 15 G 33 16.09 Mostly Cloudy BKN100 17 -3 25% 75.18 0.0
08 14:55 W 24 G 33 16.09 Mostly Cloudy BKN100 17 -5 22% 75.21 0.0
08 14:35 W 22 G 33 11.27 Partly Cloudy SCT100 18 -4 22% 75.21 0.0
08 14:15 SW 17 16.09 Partly Cloudy SCT100 17 -4 24% 75.23 0.0
08 13:55 SW 11 G 26 16.09 Fair CLR 17 -5 22% 75.26 0.0
08 13:35 W 20 G 35 11.27 Partly Cloudy SCT100 17 -5 22% 75.26 0.0
08 13:15 NW 17 16.09 Partly Cloudy SCT100 SCT120 16 -5 23% 75.29 0.0
08 12:55 NW 9 G 26 16.09 Partly Cloudy SCT120 17 -4 24% 75.31 0.0
08 12:35 SW 15 16.09 Partly Cloudy SCT120 16 -4 25% 75.34 0.0
08 12:15 SW 11 16.09 Fair CLR 16 -4 25% 75.36 0.0
08 11:55 W 13 16.09 Fair CLR 16 -5 23% 75.39 0.0
08 11:35 NW 13 16.09 Fair CLR 14 -6 25% 75.44 0.0
08 11:15 NW 11 16.09 Fair CLR 14 -6 25% 75.44 0.0
08 10:55 Calm 16.09 Fair CLR 14 -5 27% 75.44 0.0
08 10:35 NW 9 16.09 Fair CLR 14 -5 27% 75.46 0.0
08 10:15 SW 7 16.09 Fair CLR 13 -5 28% 75.46 0.0
08 09:55 SW 6 16.09 Fair CLR 12 -3 35% 75.49 0.0
08 09:35 SW 7 16.09 Partly Cloudy SCT110 11 -2 41% 75.51 0.0
08 09:15 S 11 11.27 Mostly Cloudy BKN110 9 -2 46% 8 75.51 0.0
08 08:55 S 9 16.09 Mostly Cloudy BKN100 8 -2 50% 7 75.54 0.0
08 08:35 S 9 16.09 Mostly Cloudy BKN100 7 -1 57% 5 75.54 0.0
08 08:15 S 6 16.09 Overcast OVC110 5 -1 66% 75.57 0.0
08 07:55 S 6 16.09 Mostly Cloudy BKN110 3 -1 75% 75.57 0.0
08 07:35 S 7 16.09 Mostly Cloudy BKN110 3 -2 70% 1 75.57 0.0
08 07:15 SW 6 16.09 Overcast OVC110 2 -2 75% 75.57 0.0
08 06:55 S 6 16.09 Mostly Cloudy BKN110 1 -2 81% 75.54 0.0
08 06:35 Calm 11.27 Partly Cloudy SCT120 0 -2 87% 75.54 0.0
08 06:15 Calm 8.05 Partly Cloudy with Haze SCT120 -1 -3 86% 75.54 0.0
08 05:55 Calm 16.09 Fair CLR -1 -4 80% 75.54 0.0
08 05:35 S 6 16.09 Fair CLR -1 -4 80% 75.54 0.0
08 05:15 Calm 16.09 Fair CLR -1 -4 80% 75.57 0.0
08 04:55 Calm 16.09 Fair CLR -1 -5 75% 75.57 0.0
08 04:35 Calm 16.09 Fair CLR 0 -4 75% 75.57 0.0
08 04:15 Calm 16.09 Fair CLR 0 -4 75% 75.57 0.0
08 03:55 S 6 16.09 Fair CLR -1 -3 86% 75.57 0.0
08 03:35 Calm 16.09 Fair CLR -1 -3 86% 75.59 0.0
08 03:15 Calm 16.09 Fair CLR -1 -3 86% 75.59 0.0
08 02:55 Calm 16.09 Fair CLR -1 -3 86% 75.62 0.0
08 02:35 Calm 16.09 Fair CLR -1 -4 80% 75.62 0.0
08 02:15 Calm 16.09 Fair CLR -1 -4 80% 75.62 0.0
08 01:55 Calm 16.09 Fair CLR -1 -3 86% 75.62 0.0
08 01:35 Calm 16.09 Fair CLR 0 -3 80% 75.64 0.0
08 01:15 Calm 16.09 Fair CLR 0 -3 80% 75.64 0.0
08 00:55 Calm 16.09 Fair CLR 0 -3 80% 75.67 0.0
08 00:35 Calm 16.09 Fair CLR 0 -3 80% 75.67 0.0
08 00:15 Calm 16.09 Fair CLR 0 -3 80% 75.67 0.0
07 23:55 Calm 16.09 Fair CLR 0 -3 80% 75.69 0.0
07 23:35 Calm 16.09 Fair CLR 1 -4 70% 75.69 0.0
07 23:15 Calm 16.09 Fair CLR 1 -3 75% 75.69 0.0
07 22:55 Calm 16.09 Fair CLR 2 -3 70% 75.69 0.0
07 22:35 Calm 16.09 Fair CLR 3 -3 65% 75.69 0.0
07 22:15 Calm 16.09 Fair CLR 3 -3 65% 75.67 0.0
07 21:55 Calm 16.09 Fair CLR 5 -4 53% 75.67 0.0
07 21:35 Calm 16.09 Fair CLR 6 -5 46% 75.67 0.0
07 21:15 Calm 16.09 Fair CLR 7 -6 39% 75.64 0.0
07 20:55 Calm 16.09 Fair CLR 8 -6 37% 75.64 0.0
07 20:35 NW 6 16.09 Fair CLR 9 -6 34% 75.62 0.0
07 20:15 NW 9 16.09 Fair CLR 10 -6 32% 9 75.62 0.0
07 19:55 NW 13 16.09 Fair CLR 11 -6 30% 75.59 0.0
07 19:35 NW 13 16.09 Partly Cloudy SCT090 12 -6 28% 75.59 0.0
07 19:15 N 7 16.09 Partly Cloudy SCT090 12 -6 28% 75.59 0.0
07 18:55 NW 13 16.09 Mostly Cloudy BKN090 12 -6 28% 75.59 0.0
07 18:35 W 11 16.09 Mostly Cloudy BKN090 12 -6 28% 75.59 0.0
07 18:15 W 9 16.09 Partly Cloudy SCT090 12 -6 28% 75.62 0.0
07 17:55 W 9 G 28 16.09 Partly Cloudy SCT090 12 -6 28% 75.62 0.0
07 17:35 W 19 G 26 16.09 Mostly Cloudy BKN090 12 -6 28% 75.62 0.0
07 17:15 W 22 G 28 16.09 Mostly Cloudy BKN090 13 -6 26% 75.62 0.0
07 16:55 NW 9 16.09 Mostly Cloudy SCT070 BKN090 12 -5 30% 75.62 0.0
07 16:35 W 19 G 26 16.09 Mostly Cloudy SCT075 BKN090 11 -6 30% 75.64 0.0
07 16:15 W 13 16.09 Mostly Cloudy SCT055 BKN075 BKN090 11 -5 32% 75.64 0.0
07 15:55 SW 13 16.09 Mostly Cloudy SCT065 SCT070 BKN090 11 -5 32% 75.67 0.0
07 15:35 NW 17 16.09 Mostly Cloudy SCT055 SCT065 BKN080 12 -4 33% 75.69 0.0
07 15:15 NW 13 G 26 16.09 Mostly Cloudy SCT041 SCT050 BKN070 11 -5 32% 75.69 0.0
07 14:55 W 17 G 33 16.09 Mostly Cloudy SCT043 BKN050 BKN065 10 -5 35% 8 75.69 0.0
07 14:35 W 24 G 33 11.27 Overcast SCT048 BKN055 OVC065 10 -5 35% 7 75.72 0.0
07 14:15 W 20 G 31 16.09 Overcast SCT065 OVC070 10 -6 32% 8 75.69 0.0
07 13:55 W 17 16.09 Overcast SCT055 OVC065 10 -5 35% 8 75.69 0.0
07 13:35 W 13 G 26 16.09 Overcast BKN065 OVC090 10 -5 35% 8 75.72 0.0
07 13:15 W 15 16.09 Overcast BKN065 OVC090 10 -5 35% 8 75.72 0.0
07 12:55 W 19 G 28 16.09 Overcast BKN065 BKN075 OVC090 10 -5 35% 8 75.74 0.0
07 12:35 SW 17 16.09 Overcast BKN070 OVC080 9 -5 37% 7 75.77 0.0
07 12:15 W 13 G 28 16.09 Mostly Cloudy BKN060 BKN080 10 -6 32% 8 75.79 0.0
07 11:55 W 15 G 26 16.09 Mostly Cloudy SCT060 BKN070 BKN080 10 -5 35% 8 75.79 0.0
07 11:35 SW 11 16.09 Partly Cloudy SCT060 SCT070 SCT090 9 -5 37% 8 75.82 0.0
Date Time (cdt) Wind (kph) Vis. (km) Weather Sky Cond. Air Dwpt Max. Min. Relative Humidity Wind Chill (°C) Heat Index (°C) altimeter (cm) sea level (mb) 1 hr 3 hr 6 hr
6 hour
Temperature (ºC) Pressure Precipitation (cm)